Time;durP1;ratioP1;P1;durP2;ratioP2;P2;SDS_P1;SDS_P2;PMS_P1;PMS_P2;Temp;Humidity;BMP_temperature;BMP_pressure;BME280_temperature;BME280_humidity;BME280_pressure;Samples;Min_cycle;Max_cycle;Signal;HPM_P1;HPM_P2
2024/01/30 00:02:09;;;;;;;17.83;9.37;;;7.50;99.90;;;;;;5073958;28;20362;-70
2024/01/30 00:04:35;;;;;;;14.43;10.17;;;7.50;99.90;;;;;;5074410;28;20166;-70
2024/01/30 00:07:00;;;;;;;14.03;10.90;;;7.50;99.90;;;;;;5074411;28;20189;-71
2024/01/30 00:09:26;;;;;;;13.50;9.67;;;7.50;99.90;;;;;;5074590;28;20167;-72
2024/01/30 00:11:51;;;;;;;11.20;9.37;;;7.50;99.90;;;;;;5074459;28;20174;-69
2024/01/30 00:14:17;;;;;;;12.40;9.37;;;7.50;99.90;;;;;;5074448;28;20732;-70
2024/01/30 00:16:42;;;;;;;18.90;9.53;;;7.50;99.90;;;;;;5074008;28;20193;-70
2024/01/30 00:19:08;;;;;;;12.60;8.50;;;7.50;99.90;;;;;;5074289;28;20260;-71
2024/01/30 00:21:33;;;;;;;10.90;9.37;;;7.50;99.90;;;;;;5073929;28;20166;-70
2024/01/30 00:23:59;;;;;;;14.77;8.57;;;7.50;99.90;;;;;;5073893;28;20645;-70
2024/01/30 00:26:24;;;;;;;19.63;10.30;;;7.40;99.90;;;;;;5074121;28;20210;-70
2024/01/30 00:28:50;;;;;;;12.73;9.67;;;7.50;99.90;;;;;;5072544;28;20213;-70
2024/01/30 00:31:16;;;;;;;10.93;9.77;;;7.50;99.90;;;;;;5074052;28;20705;-70
2024/01/30 00:33:41;;;;;;;16.43;10.17;;;7.50;99.90;;;;;;5073852;28;20174;-71
2024/01/30 00:36:09;;;;;;;15.80;10.37;;;7.50;99.90;;;;;;5073961;28;20186;-71
2024/01/30 00:38:34;;;;;;;11.70;8.20;;;7.40;99.90;;;;;;5073587;28;20521;-70
2024/01/30 00:41:01;;;;;;;12.63;9.33;;;7.40;99.90;;;;;;5073976;28;20761;-70
2024/01/30 00:43:27;;;;;;;17.00;10.33;;;7.40;99.90;;;;;;5073969;28;20166;-70
2024/01/30 00:45:53;;;;;;;13.33;9.87;;;7.40;99.90;;;;;;5072276;28;20489;-70
2024/01/30 00:48:18;;;;;;;12.27;8.70;;;7.50;99.90;;;;;;5073520;28;20185;-71
2024/01/30 00:50:44;;;;;;;18.83;11.57;;;7.50;99.90;;;;;;5073917;28;20625;-70
2024/01/30 00:53:09;;;;;;;13.13;9.90;;;7.50;99.90;;;;;;5073662;28;20269;-70
2024/01/30 00:55:35;;;;;;;24.13;11.63;;;7.50;99.90;;;;;;5073520;28;20248;-70
2024/01/30 00:58:01;;;;;;;13.00;9.20;;;7.50;99.90;;;;;;5073404;28;20722;-70
2024/01/30 01:00:29;;;;;;;13.80;9.00;;;7.50;99.90;;;;;;5073448;28;20166;-70
2024/01/30 01:02:55;;;;;;;17.73;10.73;;;7.50;99.90;;;;;;5073533;28;20173;-70
2024/01/30 01:05:21;;;;;;;16.37;10.27;;;7.50;99.90;;;;;;5073440;28;20845;-71
2024/01/30 01:07:50;;;;;;;18.93;10.70;;;7.50;99.90;;;;;;5073584;28;20404;-71
2024/01/30 01:10:17;;;;;;;14.13;11.83;;;7.40;99.90;;;;;;5073475;28;20989;-71
2024/01/30 01:12:42;;;;;;;16.30;11.27;;;7.40;99.90;;;;;;5073347;28;20801;-71
2024/01/30 01:15:11;;;;;;;11.67;9.57;;;7.40;99.90;;;;;;5073156;28;20432;-72
2024/01/30 01:17:38;;;;;;;22.17;11.80;;;7.40;99.90;;;;;;5072992;28;20212;-70
2024/01/30 01:20:05;;;;;;;15.37;10.50;;;7.40;99.90;;;;;;5073179;28;20416;-70
2024/01/30 01:22:30;;;;;;;17.13;10.97;;;7.40;99.90;;;;;;5073037;28;20814;-69
2024/01/30 01:24:56;;;;;;;18.03;11.33;;;7.40;99.90;;;;;;5072860;28;20424;-70
2024/01/30 01:27:21;;;;;;;16.50;10.73;;;7.40;99.90;;;;;;5072711;28;20170;-70
2024/01/30 01:29:47;;;;;;;20.03;10.20;;;7.50;99.90;;;;;;5072834;28;20167;-70
2024/01/30 01:32:13;;;;;;;16.23;11.67;;;7.40;99.90;;;;;;5072281;28;20572;-71
2024/01/30 01:34:38;;;;;;;15.60;10.37;;;7.40;99.90;;;;;;5072766;28;20162;-71
2024/01/30 01:37:04;;;;;;;13.23;9.00;;;7.50;99.90;;;;;;5072622;28;20170;-70
2024/01/30 01:39:29;;;;;;;17.20;10.47;;;7.40;99.90;;;;;;5072739;28;20673;-70
2024/01/30 01:41:55;;;;;;;14.17;9.87;;;7.30;99.90;;;;;;5072649;28;20166;-70
2024/01/30 01:44:20;;;;;;;13.13;10.00;;;7.40;99.90;;;;;;5072614;28;20215;-70
2024/01/30 01:46:46;;;;;;;14.53;8.90;;;7.40;99.90;;;;;;5072424;28;20583;-70
2024/01/30 01:49:13;;;;;;;16.33;11.93;;;7.40;99.90;;;;;;5072506;28;20170;-70
2024/01/30 01:51:40;;;;;;;13.63;9.03;;;7.40;99.90;;;;;;5072291;28;20432;-70
2024/01/30 01:54:07;;;;;;;10.87;8.00;;;7.40;99.90;;;;;;5072467;28;20432;-70
2024/01/30 01:56:33;;;;;;;14.00;9.83;;;7.40;99.90;;;;;;5072214;28;20432;-69
2024/01/30 01:59:04;;;;;;;12.00;9.53;;;7.40;99.90;;;;;;5072207;28;20456;-70
2024/01/30 02:01:30;;;;;;;10.87;9.70;;;7.40;99.90;;;;;;5072171;28;20888;-70
2024/01/30 02:03:56;;;;;;;12.93;9.57;;;7.40;99.90;;;;;;5071058;28;20790;-70
2024/01/30 02:06:22;;;;;;;13.70;8.93;;;7.40;99.90;;;;;;5072292;28;20416;-70
2024/01/30 02:08:48;;;;;;;15.97;10.20;;;7.40;99.90;;;;;;5072182;28;20170;-71
2024/01/30 02:11:13;;;;;;;15.73;10.20;;;7.40;99.90;;;;;;5070965;28;20416;-70
2024/01/30 02:13:41;;;;;;;17.00;10.50;;;7.30;99.90;;;;;;5072055;28;20253;-71
2024/01/30 02:16:06;;;;;;;10.17;8.20;;;7.40;99.90;;;;;;5071978;28;20200;-70
2024/01/30 02:18:32;;;;;;;11.83;9.03;;;7.30;99.90;;;;;;5071909;28;20456;-70
2024/01/30 02:21:01;;;;;;;10.57;9.57;;;7.30;99.90;;;;;;5072101;28;20166;-70
2024/01/30 02:23:27;;;;;;;13.50;10.17;;;7.30;99.90;;;;;;5071970;28;20612;-70
2024/01/30 02:25:53;;;;;;;15.57;10.37;;;7.30;99.90;;;;;;5071927;28;20579;-71
2024/01/30 02:28:19;;;;;;;13.33;9.80;;;7.30;99.90;;;;;;5071811;28;20198;-71
2024/01/30 02:30:46;;;;;;;14.47;9.83;;;7.30;99.90;;;;;;5071977;28;20166;-69
2024/01/30 02:33:12;;;;;;;24.40;10.17;;;7.30;99.90;;;;;;5072150;28;20895;-70
2024/01/30 02:35:38;;;;;;;14.33;11.10;;;7.20;99.90;;;;;;5071842;28;20444;-70
2024/01/30 02:38:04;;;;;;;13.93;9.17;;;7.20;99.90;;;;;;5071559;28;20456;-70
2024/01/30 02:40:29;;;;;;;13.80;9.77;;;7.20;99.90;;;;;;5071878;28;20197;-70
2024/01/30 02:42:55;;;;;;;10.50;8.80;;;7.10;99.90;;;;;;5071716;28;20436;-70
2024/01/30 02:45:21;;;;;;;17.37;9.10;;;7.10;99.90;;;;;;5071490;28;20261;-71
2024/01/30 02:47:46;;;;;;;13.43;8.80;;;7.10;99.90;;;;;;5071542;28;20408;-70
2024/01/30 02:50:12;;;;;;;13.47;9.27;;;7.00;99.90;;;;;;5071803;28;20172;-70
2024/01/30 02:52:37;;;;;;;12.70;8.40;;;7.00;99.90;;;;;;5071695;28;20649;-69
2024/01/30 02:55:03;;;;;;;11.87;8.30;;;7.00;99.90;;;;;;5071646;28;20273;-70
2024/01/30 02:57:29;;;;;;;16.10;8.57;;;7.00;99.90;;;;;;5071358;28;20548;-70
2024/01/30 02:59:54;;;;;;;10.33;8.63;;;7.10;99.90;;;;;;5071702;28;20579;-71
2024/01/30 03:02:20;;;;;;;16.20;8.30;;;7.10;99.90;;;;;;5071652;28;20241;-70
2024/01/30 03:04:46;;;;;;;14.13;7.60;;;7.00;99.90;;;;;;5071489;28;20197;-71
2024/01/30 03:07:12;;;;;;;14.87;9.60;;;6.80;99.90;;;;;;5071385;28;20189;-71
2024/01/30 03:09:38;;;;;;;13.63;8.80;;;6.80;99.90;;;;;;5071627;28;20397;-71
2024/01/30 03:12:04;;;;;;;13.00;9.03;;;6.70;99.90;;;;;;5070292;28;20581;-71
2024/01/30 03:14:32;;;;;;;13.90;8.87;;;6.80;99.90;;;;;;5071580;28;20405;-70
2024/01/30 03:16:58;;;;;;;14.93;8.53;;;6.80;99.90;;;;;;5071370;28;20409;-70
2024/01/30 03:19:23;;;;;;;12.87;9.03;;;6.80;99.90;;;;;;5071560;28;20567;-70
2024/01/30 03:21:50;;;;;;;13.87;9.00;;;6.80;99.90;;;;;;5071515;28;20184;-71
2024/01/30 03:24:15;;;;;;;17.77;9.17;;;6.80;99.90;;;;;;5071358;28;20177;-70
2024/01/30 03:26:41;;;;;;;16.00;8.40;;;6.90;99.90;;;;;;5069842;28;20523;-71
2024/01/30 03:29:07;;;;;;;13.53;8.80;;;6.80;99.90;;;;;;5071217;28;20225;-70
2024/01/30 03:31:33;;;;;;;12.37;8.33;;;6.90;99.90;;;;;;5071289;28;20507;-71
2024/01/30 03:33:58;;;;;;;22.90;9.43;;;6.80;99.90;;;;;;5070094;28;20174;-70
2024/01/30 03:36:24;;;;;;;14.93;8.63;;;6.80;99.90;;;;;;5071232;28;20256;-70
2024/01/30 03:38:50;;;;;;;13.43;9.50;;;6.80;99.90;;;;;;5070937;28;20194;-71
2024/01/30 03:41:15;;;;;;;14.27;8.77;;;6.80;99.90;;;;;;5071265;28;20159;-71
2024/01/30 03:43:41;;;;;;;12.57;8.17;;;6.80;99.90;;;;;;5071273;28;20198;-70
2024/01/30 03:46:06;;;;;;;11.30;7.77;;;6.80;99.90;;;;;;5069919;28;20201;-71
2024/01/30 03:48:32;;;;;;;12.70;8.73;;;6.90;99.90;;;;;;5071055;28;20170;-70
2024/01/30 03:50:57;;;;;;;11.67;8.13;;;6.90;99.90;;;;;;5071058;28;20178;-70
2024/01/30 03:53:23;;;;;;;11.67;8.67;;;6.90;99.90;;;;;;5070933;28;20196;-70
2024/01/30 03:55:48;;;;;;;14.23;8.47;;;6.90;99.90;;;;;;5071965;28;20186;-70
2024/01/30 03:58:14;;;;;;;19.23;9.10;;;7.00;99.90;;;;;;5074340;28;20205;-70
2024/01/30 04:00:40;;;;;;;16.23;9.73;;;6.90;99.90;;;;;;5074761;28;20588;-71
2024/01/30 04:03:06;;;;;;;12.27;8.53;;;7.00;99.90;;;;;;5074644;28;20562;-71
2024/01/30 04:05:32;;;;;;;12.87;9.43;;;7.00;99.90;;;;;;5074127;28;20447;-70
2024/01/30 04:07:57;;;;;;;12.97;9.60;;;6.90;99.90;;;;;;5073981;28;20174;-70
2024/01/30 04:10:24;;;;;;;15.83;9.20;;;6.90;99.90;;;;;;5074516;28;20174;-71
2024/01/30 04:12:51;;;;;;;11.27;8.87;;;7.00;99.90;;;;;;5074469;28;20223;-70
2024/01/30 04:15:17;;;;;;;20.10;9.70;;;7.00;99.90;;;;;;5074254;28;20428;-70
2024/01/30 04:17:43;;;;;;;11.53;8.67;;;6.90;99.90;;;;;;5074156;28;21288;-70
2024/01/30 04:20:16;;;;;;;15.43;8.70;;;6.90;99.90;;;;;;5074545;28;20216;-70
2024/01/30 04:22:44;;;;;;;16.43;10.87;;;6.90;99.90;;;;;;5073026;28;20170;-70
2024/01/30 04:25:09;;;;;;;14.00;9.90;;;6.90;99.90;;;;;;5074200;28;20416;-70
2024/01/30 04:27:34;;;;;;;13.60;10.50;;;6.90;99.90;;;;;;5074129;28;20400;-70
2024/01/30 04:30:00;;;;;;;12.93;9.10;;;6.90;99.90;;;;;;5072942;28;20166;-71
2024/01/30 04:32:25;;;;;;;16.40;8.93;;;6.80;99.90;;;;;;5074117;28;20576;-71
2024/01/30 04:34:51;;;;;;;11.67;9.20;;;6.80;99.90;;;;;;5074033;28;20182;-71
2024/01/30 04:37:16;;;;;;;12.10;8.17;;;6.70;99.90;;;;;;5073847;28;20166;-71
2024/01/30 04:39:42;;;;;;;11.63;8.47;;;6.60;99.90;;;;;;5073914;28;20681;-70
2024/01/30 04:42:08;;;;;;;11.20;8.20;;;6.60;99.90;;;;;;5073957;28;20637;-71
2024/01/30 04:44:33;;;;;;;14.03;9.57;;;6.60;99.90;;;;;;5073849;28;20397;-70
2024/01/30 04:47:01;;;;;;;12.37;8.70;;;6.60;99.90;;;;;;5073653;28;20165;-70
2024/01/30 04:49:27;;;;;;;13.40;8.80;;;6.50;99.90;;;;;;5073856;28;20162;-70
2024/01/30 04:51:52;;;;;;;12.93;9.03;;;6.40;99.90;;;;;;5073622;28;20517;-71
2024/01/30 04:54:18;;;;;;;13.47;9.03;;;6.40;99.90;;;;;;5073598;28;20459;-70
2024/01/30 04:56:43;;;;;;;11.10;8.80;;;6.30;99.90;;;;;;5073394;28;20197;-69
2024/01/30 04:59:09;;;;;;;11.60;9.30;;;6.30;99.90;;;;;;5073596;28;20194;-70
2024/01/30 05:01:35;;;;;;;10.63;8.60;;;6.20;99.90;;;;;;5073421;28;20231;-70
2024/01/30 05:04:00;;;;;;;13.43;8.53;;;6.20;99.90;;;;;;5073503;28;20237;-70
2024/01/30 05:06:27;;;;;;;11.53;7.90;;;6.30;99.90;;;;;;5073290;28;20265;-70
2024/01/30 05:08:52;;;;;;;13.57;8.30;;;6.30;99.90;;;;;;5072291;28;20409;-71
2024/01/30 05:11:18;;;;;;;13.50;10.53;;;6.30;99.90;;;;;;5073270;28;20405;-70
2024/01/30 05:13:44;;;;;;;16.40;9.97;;;6.30;99.90;;;;;;5073371;28;20952;-70
2024/01/30 05:16:09;;;;;;;13.23;8.80;;;6.20;99.90;;;;;;5072997;28;20208;-71
2024/01/30 05:18:35;;;;;;;24.97;9.80;;;6.20;99.90;;;;;;5073307;28;20197;-71
2024/01/30 05:21:01;;;;;;;12.00;9.00;;;6.10;99.90;;;;;;5073318;28;20166;-70
2024/01/30 05:23:27;;;;;;;17.73;10.67;;;6.10;99.90;;;;;;5073342;28;20166;-71
2024/01/30 05:25:52;;;;;;;17.57;10.10;;;6.00;99.90;;;;;;5073098;28;20423;-71
2024/01/30 05:28:18;;;;;;;18.43;11.27;;;6.00;99.90;;;;;;5072853;28;20193;-70
2024/01/30 05:30:43;;;;;;;14.67;9.50;;;6.10;99.90;;;;;;5073109;28;20837;-70
2024/01/30 05:33:09;;;;;;;11.80;9.33;;;6.10;99.90;;;;;;5072948;28;20201;-71
2024/01/30 05:35:35;;;;;;;12.50;9.00;;;6.00;99.90;;;;;;5072756;28;20252;-70
2024/01/30 05:38:00;;;;;;;15.03;10.40;;;6.10;99.90;;;;;;5072548;28;20315;-71
2024/01/30 05:40:27;;;;;;;12.03;10.83;;;6.10;99.90;;;;;;5072866;28;20166;-70
2024/01/30 05:42:52;;;;;;;15.30;12.53;;;6.20;99.90;;;;;;5072829;28;20200;-70
2024/01/30 05:45:18;;;;;;;14.30;12.80;;;6.20;99.90;;;;;;5072627;28;20424;-70
2024/01/30 05:47:43;;;;;;;15.30;12.30;;;6.10;99.90;;;;;;5072475;28;20162;-70
2024/01/30 05:50:09;;;;;;;17.53;9.40;;;6.10;99.90;;;;;;5071344;28;20170;-70
2024/01/30 05:52:34;;;;;;;10.93;8.93;;;6.00;99.90;;;;;;5072415;28;20530;-70
2024/01/30 05:55:00;;;;;;;10.97;8.00;;;6.10;99.90;;;;;;5072523;28;20654;-70
2024/01/30 05:57:26;;;;;;;11.63;8.53;;;6.00;99.90;;;;;;5072131;28;20158;-71
2024/01/30 05:59:52;;;;;;;10.83;7.20;;;6.00;99.90;;;;;;5072370;28;20223;-69
2024/01/30 06:02:17;;;;;;;14.70;7.70;;;6.10;99.90;;;;;;5072389;28;20203;-70
2024/01/30 06:04:44;;;;;;;11.37;7.93;;;6.10;99.90;;;;;;5072264;28;20495;-72
2024/01/30 06:07:09;;;;;;;9.47;7.50;;;6.10;99.90;;;;;;5072089;28;20180;-71
2024/01/30 06:09:35;;;;;;;8.90;7.40;;;6.20;99.90;;;;;;5072039;28;20970;-71
2024/01/30 06:12:00;;;;;;;16.30;8.70;;;6.20;99.90;;;;;;5072333;28;20171;-71
2024/01/30 06:14:26;;;;;;;11.30;8.27;;;6.20;99.90;;;;;;5071897;28;20170;-71
2024/01/30 06:16:51;;;;;;;11.10;7.57;;;6.30;99.90;;;;;;5070595;28;20174;-70
2024/01/30 06:19:17;;;;;;;11.07;7.40;;;6.30;99.90;;;;;;5071619;28;20581;-69
2024/01/30 06:21:42;;;;;;;22.77;7.50;;;6.30;99.90;;;;;;5072100;28;20170;-69
2024/01/30 06:24:08;;;;;;;11.23;6.90;;;6.40;99.90;;;;;;5072002;28;20625;-70
2024/01/30 06:26:34;;;;;;;13.43;8.27;;;6.40;99.90;;;;;;5071723;28;20556;-69
2024/01/30 06:29:00;;;;;;;12.13;7.40;;;6.40;99.90;;;;;;5072044;28;20177;-71
2024/01/30 06:31:25;;;;;;;16.73;8.27;;;6.50;99.90;;;;;;5071978;28;20404;-72
2024/01/30 06:33:51;;;;;;;18.13;8.93;;;6.50;99.90;;;;;;5072037;28;20169;-72
2024/01/30 06:36:16;;;;;;;10.43;7.73;;;6.60;99.90;;;;;;5071826;28;20197;-72
2024/01/30 06:38:42;;;;;;;8.30;7.40;;;6.60;99.90;;;;;;5071665;28;20226;-71
2024/01/30 06:41:07;;;;;;;18.13;9.47;;;6.60;99.90;;;;;;5071899;28;20174;-71
2024/01/30 06:43:33;;;;;;;12.90;9.00;;;6.50;99.90;;;;;;5071911;28;20224;-72
2024/01/30 06:45:59;;;;;;;11.60;8.40;;;6.40;99.90;;;;;;5071778;28;20182;-71
2024/01/30 06:48:25;;;;;;;13.20;9.57;;;6.40;99.90;;;;;;5071572;28;20204;-72
2024/01/30 06:50:53;;;;;;;13.97;9.40;;;6.40;99.90;;;;;;5071949;28;20447;-72
2024/01/30 06:53:19;;;;;;;12.10;8.40;;;6.50;99.90;;;;;;5071647;28;20182;-71
2024/01/30 06:55:44;;;;;;;13.37;8.17;;;6.60;99.90;;;;;;5071978;28;20424;-72
2024/01/30 06:58:10;;;;;;;12.57;8.60;;;6.60;99.90;;;;;;5071440;28;20186;-72
2024/01/30 07:00:36;;;;;;;10.60;8.30;;;6.70;99.90;;;;;;5070503;28;20170;-72
2024/01/30 07:03:01;;;;;;;14.10;9.00;;;6.70;99.90;;;;;;5071748;28;20240;-72
2024/01/30 07:05:27;;;;;;;14.80;9.80;;;6.70;99.90;;;;;;5071686;28;20432;-72
2024/01/30 07:07:52;;;;;;;13.33;8.87;;;6.70;99.90;;;;;;5071362;28;20189;-72
2024/01/30 07:10:18;;;;;;;18.23;7.57;;;6.70;99.90;;;;;;5071539;28;20202;-72
2024/01/30 07:12:43;;;;;;;13.03;9.67;;;6.80;99.90;;;;;;5071495;28;20178;-69
2024/01/30 07:15:10;;;;;;;13.07;8.70;;;6.80;99.90;;;;;;5071563;28;20194;-70
2024/01/30 07:17:35;;;;;;;11.30;8.60;;;6.70;99.90;;;;;;5071224;28;20241;-71
2024/01/30 07:20:03;;;;;;;15.40;9.47;;;6.70;99.90;;;;;;5071511;28;20853;-70
2024/01/30 07:22:30;;;;;;;15.03;8.83;;;6.70;99.90;;;;;;5071464;28;20159;-70
2024/01/30 07:24:55;;;;;;;8.37;7.53;;;6.70;99.90;;;;;;5071451;28;20431;-70
2024/01/30 07:27:21;;;;;;;13.37;9.27;;;6.70;99.90;;;;;;5071314;28;20409;-71
2024/01/30 07:29:47;;;;;;;10.10;8.00;;;6.60;99.90;;;;;;5071504;28;20212;-70
2024/01/30 07:32:12;;;;;;;11.50;8.60;;;6.50;99.90;;;;;;5074471;28;20170;-69
2024/01/30 07:34:38;;;;;;;15.03;9.10;;;6.60;99.90;;;;;;5074919;28;20174;-70
2024/01/30 07:37:03;;;;;;;13.80;8.40;;;6.60;99.90;;;;;;5074831;28;20177;-70
2024/01/30 07:39:29;;;;;;;12.07;8.30;;;6.60;99.90;;;;;;5074882;28;20251;-70
2024/01/30 07:41:54;;;;;;;10.37;7.43;;;6.60;99.90;;;;;;5074925;28;20166;-69
2024/01/30 07:44:20;;;;;;;14.63;7.93;;;6.70;99.90;;;;;;5074896;28;20177;-71
2024/01/30 07:46:46;;;;;;;11.50;8.30;;;6.80;99.90;;;;;;5074515;28;20190;-70
2024/01/30 07:49:14;;;;;;;12.20;7.90;;;6.90;99.90;;;;;;5074796;28;20405;-71
2024/01/30 07:51:39;;;;;;;15.10;9.67;;;7.10;99.90;;;;;;5074765;28;20536;-70
2024/01/30 07:54:05;;;;;;;9.47;6.53;;;7.20;99.90;;;;;;5074538;28;20554;-71
2024/01/30 07:56:30;;;;;;;7.60;6.60;;;7.30;99.90;;;;;;5074354;28;20198;-71
2024/01/30 07:58:56;;;;;;;12.20;6.67;;;7.40;99.90;;;;;;5074463;28;20193;-71
2024/01/30 08:01:21;;;;;;;13.00;8.23;;;7.40;99.90;;;;;;5074497;28;20654;-71
2024/01/30 08:03:47;;;;;;;12.50;7.93;;;7.40;99.90;;;;;;5074440;28;20633;-71
2024/01/30 08:06:12;;;;;;;11.07;7.33;;;7.30;99.90;;;;;;5073130;28;20661;-71
2024/01/30 08:08:38;;;;;;;9.67;6.13;;;7.40;99.90;;;;;;5074173;28;20204;-71
2024/01/30 08:11:04;;;;;;;9.87;8.33;;;7.40;99.90;;;;;;5074402;28;20174;-71
2024/01/30 08:13:29;;;;;;;11.57;7.20;;;7.30;99.90;;;;;;5074409;28;20167;-71
2024/01/30 08:15:55;;;;;;;15.17;7.73;;;7.40;99.90;;;;;;5074325;28;20204;-71
2024/01/30 08:18:20;;;;;;;16.20;9.00;;;7.50;99.90;;;;;;5073816;28;20229;-71
2024/01/30 08:20:46;;;;;;;13.93;9.53;;;7.50;99.90;;;;;;5074261;28;20231;-68
2024/01/30 08:23:11;;;;;;;11.63;8.30;;;7.60;99.90;;;;;;5074264;28;20204;-68
2024/01/30 08:25:37;;;;;;;12.60;9.33;;;7.70;99.90;;;;;;5074111;28;20653;-67
2024/01/30 08:28:03;;;;;;;13.00;8.40;;;7.80;99.90;;;;;;5073675;28;20174;-68
2024/01/30 08:30:29;;;;;;;10.07;7.43;;;7.90;99.90;;;;;;5074233;28;20170;-67
2024/01/30 08:32:55;;;;;;;9.07;6.50;;;7.90;99.90;;;;;;5074055;28;20483;-67
2024/01/30 08:35:20;;;;;;;11.50;7.47;;;8.00;99.90;;;;;;5073733;28;20190;-67
2024/01/30 08:37:46;;;;;;;13.97;8.90;;;8.20;99.90;;;;;;5073688;28;20170;-67
2024/01/30 08:40:11;;;;;;;10.37;8.67;;;8.30;99.90;;;;;;5072858;28;20162;-68
2024/01/30 08:42:37;;;;;;;9.57;8.37;;;8.50;99.90;;;;;;5065527;28;20205;-67
2024/01/30 08:45:04;;;;;;;14.70;9.93;;;8.70;99.90;;;;;;5061056;28;20186;-67
2024/01/30 08:47:30;;;;;;;13.47;9.80;;;8.80;99.90;;;;;;5065311;28;20246;-67
2024/01/30 08:49:55;;;;;;;8.23;7.43;;;9.00;99.90;;;;;;5068909;28;20413;-67
2024/01/30 08:52:21;;;;;;;8.43;6.80;;;9.30;99.90;;;;;;5071657;28;20511;-66
2024/01/30 08:54:46;;;;;;;11.73;8.73;;;9.70;99.90;;;;;;5053588;28;20194;-66
2024/01/30 08:57:12;;;;;;;11.00;6.30;;;10.30;99.90;;;;;;5053321;28;20171;-66
2024/01/30 08:59:37;;;;;;;10.60;8.20;;;10.50;99.90;;;;;;5055969;28;20202;-66
2024/01/30 09:02:04;;;;;;;14.97;7.60;;;10.60;99.90;;;;;;5070182;28;20232;-66
2024/01/30 09:04:29;;;;;;;10.20;7.43;;;10.80;99.90;;;;;;5066687;28;20159;-66
2024/01/30 09:06:55;;;;;;;9.30;6.70;;;10.90;99.90;;;;;;5063417;28;20411;-67
2024/01/30 09:09:20;;;;;;;12.37;7.10;;;11.00;99.90;;;;;;5053270;28;20233;-65
2024/01/30 09:11:46;;;;;;;9.43;6.90;;;11.10;99.90;;;;;;5057212;28;20213;-67
2024/01/30 09:14:11;;;;;;;8.40;6.97;;;11.60;99.90;;;;;;5062316;28;20178;-67
2024/01/30 09:16:37;;;;;;;12.00;7.50;;;11.70;99.90;;;;;;5061785;28;20205;-67
2024/01/30 09:19:03;;;;;;;10.80;7.27;;;11.80;99.90;;;;;;5053061;28;20205;-68
2024/01/30 09:21:28;;;;;;;10.20;7.37;;;11.80;99.90;;;;;;5054295;28;20216;-67
2024/01/30 09:24:03;;;;;;;11.70;6.90;;;11.90;99.90;;;;;;5067520;28;20197;-67
2024/01/30 09:26:29;;;;;;;8.50;6.37;;;11.90;99.90;;;;;;5068683;28;20185;-67
2024/01/30 09:28:54;;;;;;;8.47;7.13;;;12.10;99.90;;;;;;5069821;28;20919;-67
2024/01/30 09:31:20;;;;;;;10.57;7.60;;;12.20;99.90;;;;;;5070084;28;20617;-67
2024/01/30 09:33:47;;;;;;;8.70;7.43;;;12.20;99.90;;;;;;5060307;28;20216;-67
2024/01/30 09:36:15;;;;;;;9.63;6.60;;;12.10;99.90;;;;;;5055294;28;20191;-66
2024/01/30 09:38:40;;;;;;;7.43;6.47;;;12.10;99.90;;;;;;5061197;28;20452;-67
2024/01/30 09:41:10;;;;;;;10.50;7.53;;;12.10;99.90;;;;;;5071239;28;20412;-66
2024/01/30 09:43:38;;;;;;;8.63;6.23;;;11.90;99.90;;;;;;5062054;28;20163;-67
2024/01/30 09:46:05;;;;;;;9.47;7.10;;;11.90;99.90;;;;;;5053698;28;20425;-67
2024/01/30 09:48:32;;;;;;;9.13;6.80;;;11.70;99.90;;;;;;5053561;28;20496;-67
2024/01/30 09:50:58;;;;;;;9.20;7.30;;;11.70;99.90;;;;;;5057268;28;20409;-67
2024/01/30 09:53:23;;;;;;;17.87;6.93;;;11.70;99.90;;;;;;5053026;28;20425;-67
2024/01/30 09:55:50;;;;;;;8.00;6.93;;;11.60;99.90;;;;;;5052560;28;20194;-67
2024/01/30 09:58:16;;;;;;;9.63;7.43;;;11.50;99.90;;;;;;5068767;28;20557;-67
2024/01/30 10:00:42;;;;;;;7.90;6.30;;;11.40;99.90;;;;;;5053247;28;20408;-67
2024/01/30 10:03:08;;;;;;;8.23;6.73;;;11.30;99.90;;;;;;5056713;28;20416;-68
2024/01/30 10:05:35;;;;;;;8.50;6.17;;;11.30;99.90;;;;;;5061430;28;20796;-68
2024/01/30 10:08:01;;;;;;;8.30;6.43;;;11.40;99.90;;;;;;5059393;28;20410;-67
2024/01/30 10:10:26;;;;;;;9.00;6.37;;;11.40;99.90;;;;;;5059530;28;20412;-68
2024/01/30 10:12:52;;;;;;;9.60;7.20;;;11.50;99.90;;;;;;5057438;28;20676;-68
2024/01/30 10:15:18;;;;;;;12.37;7.63;;;11.60;99.90;;;;;;5058625;28;20187;-68
2024/01/30 10:17:45;;;;;;;9.03;6.60;;;11.60;99.90;;;;;;5063638;28;20677;-68
2024/01/30 10:20:11;;;;;;;10.17;8.83;;;11.70;99.90;;;;;;5063079;28;20559;-68
2024/01/30 10:22:37;;;;;;;9.83;7.53;;;11.70;99.90;;;;;;5056250;28;21052;-69
2024/01/30 10:25:04;;;;;;;7.20;6.50;;;11.60;99.90;;;;;;5072016;28;20178;-68
2024/01/30 10:27:30;;;;;;;9.47;6.53;;;11.60;99.90;;;;;;5068206;28;20166;-69
2024/01/30 10:29:55;;;;;;;13.20;7.73;;;11.40;99.90;;;;;;5054789;28;20409;-67
2024/01/30 10:32:21;;;;;;;9.30;7.60;;;11.40;99.90;;;;;;5067555;28;20565;-69
2024/01/30 10:34:47;;;;;;;8.00;6.03;;;11.40;99.90;;;;;;5067774;28;20585;-68
2024/01/30 10:37:15;;;;;;;9.47;7.33;;;11.40;99.90;;;;;;5056540;28;20635;-65
2024/01/30 10:39:42;;;;;;;10.80;7.60;;;11.50;99.90;;;;;;5051687;28;20186;-66
2024/01/30 10:42:18;;;;;;;10.37;6.63;;;11.60;99.90;;;;;;5051772;28;20403;-66
2024/01/30 10:45:03;;;;;;;12.17;7.13;;;11.60;99.90;;;;;;5051713;28;20500;-66
2024/01/30 10:47:29;;;;;;;12.50;8.33;;;11.80;99.90;;;;;;5075968;28;20410;-67
2024/01/30 10:49:55;;;;;;;10.37;7.63;;;11.80;99.90;;;;;;5070932;28;20853;-67
2024/01/30 10:52:25;;;;;;;10.63;7.10;;;12.00;99.90;;;;;;5071625;28;20181;-68
2024/01/30 10:54:52;;;;;;;11.40;7.80;;;12.10;99.90;;;;;;5071674;28;20432;-66
2024/01/30 10:57:17;;;;;;;15.93;7.30;;;12.20;99.90;;;;;;5071464;28;20403;-66
2024/01/30 10:59:45;;;;;;;10.90;6.70;;;12.20;99.90;;;;;;5071545;28;20456;-66
2024/01/30 11:02:11;;;;;;;13.53;7.87;;;12.20;99.90;;;;;;5071678;28;20220;-67
2024/01/30 11:04:37;;;;;;;11.50;8.93;;;12.30;99.90;;;;;;5071550;28;20755;-68
2024/01/30 11:07:14;;;;;;;14.53;7.17;;;12.40;99.90;;;;;;5074580;28;20392;-68
2024/01/30 11:09:41;;;;;;;10.57;7.60;;;12.40;99.90;;;;;;5075816;28;20400;-68
2024/01/30 11:12:12;;;;;;;9.47;7.20;;;12.50;99.90;;;;;;5075792;28;20419;-68
2024/01/30 11:14:40;;;;;;;11.30;8.50;;;12.60;99.90;;;;;;5075783;28;20923;-68
2024/01/30 11:17:05;;;;;;;10.27;7.20;;;12.70;99.90;;;;;;5075369;28;20445;-68
2024/01/30 11:19:32;;;;;;;11.50;8.50;;;12.70;99.90;;;;;;5075465;28;20923;-68
2024/01/30 11:21:57;;;;;;;11.20;7.77;;;12.80;99.90;;;;;;5075472;28;20169;-68
2024/01/30 11:24:27;;;;;;;13.33;8.23;;;12.90;99.90;;;;;;5075344;28;20401;-68
2024/01/30 11:26:57;;;;;;;15.03;7.87;;;12.90;99.90;;;;;;5075069;28;20158;-68
2024/01/30 11:29:29;;;;;;;9.50;8.53;;;13.00;99.90;;;;;;5075283;28;20404;-68
2024/01/30 11:31:56;;;;;;;14.10;7.00;;;13.20;99.90;;;;;;5075260;28;20415;-69
2024/01/30 11:34:23;;;;;;;7.77;6.40;;;13.40;99.90;;;;;;5075209;28;20396;-68
2024/01/30 11:36:58;;;;;;;12.33;6.67;;;13.60;99.90;;;;;;5074916;28;20923;-68
2024/01/30 11:39:27;;;;;;;11.40;6.87;;;13.80;99.90;;;;;;5074881;28;20470;-68
2024/01/30 11:41:53;;;;;;;9.77;7.00;;;13.80;99.90;;;;;;5075120;28;20396;-70
2024/01/30 11:44:20;;;;;;;10.00;7.13;;;13.90;99.90;;;;;;5074842;28;20404;-68
2024/01/30 11:46:50;;;;;;;10.47;7.43;;;14.00;99.90;;;;;;5074630;28;20431;-68
2024/01/30 11:49:17;;;;;;;8.47;6.80;;;14.20;99.90;;;;;;5075126;28;20439;-68
2024/01/30 11:51:45;;;;;;;9.63;7.30;;;14.20;99.90;;;;;;5074766;28;20409;-69
2024/01/30 11:54:11;;;;;;;9.67;6.60;;;14.40;99.90;;;;;;5074695;28;20455;-69
2024/01/30 11:56:38;;;;;;;9.73;6.90;;;14.30;99.90;;;;;;5073138;28;20420;-69
2024/01/30 11:59:04;;;;;;;8.83;7.03;;;14.40;99.90;;;;;;5074714;28;20186;-68
2024/01/30 12:01:31;;;;;;;9.20;6.97;;;14.40;99.90;;;;;;5073416;28;20404;-69
2024/01/30 12:03:57;;;;;;;9.40;6.70;;;14.40;99.90;;;;;;5074792;28;20431;-68
2024/01/30 12:06:23;;;;;;;14.23;7.73;;;14.50;99.90;;;;;;5074586;28;20446;-68
2024/01/30 12:08:59;;;;;;;9.60;5.80;;;14.50;99.90;;;;;;5074335;28;20918;-69
2024/01/30 12:11:25;;;;;;;10.30;6.87;;;14.60;99.90;;;;;;5074527;28;20464;-68
2024/01/30 12:13:52;;;;;;;7.93;6.10;;;14.70;99.90;;;;;;5074514;28;20401;-68
2024/01/30 12:16:18;;;;;;;11.60;7.00;;;14.80;99.90;;;;;;5073824;28;20182;-69
2024/01/30 12:18:43;;;;;;;7.67;6.73;;;14.80;99.90;;;;;;5074076;28;20586;-68
2024/01/30 12:21:09;;;;;;;10.83;7.43;;;14.90;99.90;;;;;;5074444;28;20255;-68
2024/01/30 12:23:35;;;;;;;8.80;6.47;;;15.20;99.90;;;;;;5074356;28;20253;-67
2024/01/30 12:26:03;;;;;;;8.77;7.87;;;15.60;99.90;;;;;;5074148;28;20300;-67
2024/01/30 12:28:29;;;;;;;14.30;6.63;;;15.80;99.90;;;;;;5074070;28;20162;-67
2024/01/30 12:31:02;;;;;;;12.37;7.20;;;16.00;99.90;;;;;;5074187;28;20433;-67
2024/01/30 12:33:31;;;;;;;11.37;7.00;;;16.10;99.90;;;;;;5074145;28;20408;-68
2024/01/30 12:36:01;;;;;;;9.53;6.97;;;16.20;99.90;;;;;;5074053;28;20424;-67
2024/01/30 12:38:27;;;;;;;8.17;5.30;;;16.10;99.90;;;;;;5073740;28;20455;-67
2024/01/30 12:40:56;;;;;;;6.47;4.23;;;15.80;99.90;;;;;;5073957;28;20404;-67